createdAt,value
2023-06-28T00:04:45.251Z,2.10
2023-06-28T00:09:50.802Z,2.00
2023-06-28T00:14:55.782Z,2.20
2023-06-28T00:20:12.173Z,2.40
2023-06-28T00:25:16.346Z,2.50
2023-06-28T00:30:20.455Z,2.50
2023-06-28T00:35:24.470Z,2.70
2023-06-28T00:40:29.434Z,2.90
2023-06-28T00:45:33.562Z,2.80
2023-06-28T00:50:38.348Z,3.10
2023-06-28T00:55:42.577Z,3.30
2023-06-28T01:00:47.285Z,4.00
2023-06-28T01:05:54.309Z,3.20
2023-06-28T01:11:00.368Z,3.30
2023-06-28T01:16:04.733Z,3.60
2023-06-28T01:21:12.497Z,3.80
2023-06-28T01:26:18.770Z,3.50
2023-06-28T01:31:23.380Z,3.40
2023-06-28T01:36:28.075Z,3.00
2023-06-28T01:41:32.879Z,3.60
2023-06-28T01:46:38.581Z,3.50
2023-06-28T01:51:44.868Z,3.50
2023-06-28T01:56:49.643Z,3.40
2023-06-28T02:01:55.334Z,3.40
2023-06-28T02:06:59.416Z,3.00
2023-06-28T02:12:04.329Z,3.20
2023-06-28T02:17:16.026Z,3.10
2023-06-28T02:22:20.724Z,2.70
2023-06-28T02:27:24.922Z,2.90
2023-06-28T02:32:32.318Z,2.60
2023-06-28T02:37:36.474Z,3.20
2023-06-28T02:42:40.570Z,3.00
2023-06-28T02:47:44.503Z,2.50
2023-06-28T02:52:48.905Z,3.30
2023-06-28T02:57:53.832Z,2.80
2023-06-28T03:02:57.859Z,2.60
2023-06-28T03:08:06.343Z,2.30
2023-06-28T03:13:10.422Z,2.90
2023-06-28T03:18:14.822Z,2.30
2023-06-28T03:23:19.193Z,2.80
2023-06-28T03:28:23.205Z,2.80
2023-06-28T03:33:27.218Z,2.60
2023-06-28T03:38:31.116Z,3.20
2023-06-28T03:43:35.625Z,2.90
2023-06-28T03:48:39.611Z,3.00
2023-06-28T03:53:43.783Z,2.60
2023-06-28T03:58:47.703Z,2.50
2023-06-28T04:03:51.897Z,2.60
2023-06-28T04:08:56.714Z,3.00
2023-06-28T04:14:00.744Z,1.90
2023-06-28T04:19:06.847Z,1.90
2023-06-28T04:24:11.590Z,2.20
2023-06-28T04:29:15.518Z,2.00
2023-06-28T04:34:19.979Z,2.10
2023-06-28T04:39:24.207Z,1.80
2023-06-28T04:44:35.693Z,2.10
2023-06-28T04:49:40.063Z,2.10
2023-06-28T04:54:44.190Z,1.70
2023-06-28T04:59:48.566Z,1.60
2023-06-28T05:04:53.100Z,2.00
2023-06-28T05:09:57.106Z,1.90
2023-06-28T05:15:01.168Z,1.90
2023-06-28T05:20:06.745Z,1.90
2023-06-28T05:25:10.901Z,1.60
2023-06-28T05:30:14.981Z,1.50
2023-06-28T05:35:18.897Z,1.70
2023-06-28T05:40:23.031Z,1.80
2023-06-28T05:45:31.023Z,2.30
2023-06-28T05:50:37.153Z,1.70
2023-06-28T05:55:43.281Z,2.00
2023-06-28T06:00:47.338Z,2.20
2023-06-28T06:05:54.720Z,2.00
2023-06-28T06:10:58.787Z,2.50
2023-06-28T06:16:03.212Z,2.30
2023-06-28T06:21:07.743Z,1.90
2023-06-28T06:26:12.971Z,2.00
2023-06-28T06:31:16.844Z,1.80
2023-06-28T06:36:20.961Z,1.70
2023-06-28T06:41:25.592Z,1.80
2023-06-28T06:46:29.764Z,2.60
2023-06-28T06:51:34.980Z,1.90
2023-06-28T06:56:39.032Z,1.60
2023-06-28T07:01:43.056Z,1.70
2023-06-28T07:06:48.164Z,1.80
2023-06-28T07:11:52.219Z,1.60
2023-06-28T07:16:56.404Z,2.20
2023-06-28T07:22:00.399Z,1.50
2023-06-28T07:27:04.949Z,1.50
2023-06-28T07:32:09.842Z,1.40
2023-06-28T07:37:13.867Z,2.20
2023-06-28T07:42:17.999Z,1.70
2023-06-28T07:47:22.069Z,1.40
2023-06-28T07:52:25.981Z,1.90
2023-06-28T07:57:29.903Z,1.70
2023-06-28T08:02:33.842Z,1.50
2023-06-28T08:07:37.969Z,1.50
2023-06-28T08:12:42.160Z,1.30
2023-06-28T08:17:49.576Z,1.20
2023-06-28T08:22:53.763Z,1.60
2023-06-28T08:27:57.681Z,1.70
2023-06-28T08:33:02.098Z,1.70
2023-06-28T08:38:06.041Z,1.60
2023-06-28T08:43:12.419Z,2.00
2023-06-28T08:48:28.451Z,1.50
2023-06-28T08:53:34.362Z,1.50
2023-06-28T08:58:39.692Z,1.60
2023-06-28T09:03:45.148Z,1.50
2023-06-28T09:08:49.762Z,1.30
2023-06-28T09:13:54.587Z,1.80
2023-06-28T09:18:58.558Z,1.70
2023-06-28T09:24:02.675Z,1.50
2023-06-28T09:29:13.013Z,1.30
2023-06-28T09:34:24.158Z,1.40
2023-06-28T09:39:38.529Z,1.90
2023-06-28T09:44:56.521Z,1.90
2023-06-28T09:50:04.058Z,2.00
2023-06-28T09:55:09.504Z,1.70
2023-06-28T10:00:14.914Z,1.50
2023-06-28T10:05:21.126Z,2.50
2023-06-28T10:10:25.365Z,1.70
2023-06-28T10:15:34.436Z,1.50
2023-06-28T10:20:40.505Z,2.30
2023-06-28T10:25:48.408Z,1.80
2023-06-28T10:30:54.249Z,1.40
2023-06-28T10:35:58.354Z,1.70
2023-06-28T10:41:03.110Z,1.70
2023-06-28T10:46:24.334Z,1.70
2023-06-28T10:51:31.485Z,1.80
2023-06-28T10:56:49.205Z,2.10
2023-06-28T11:02:00.210Z,1.80
2023-06-28T11:07:04.701Z,1.60
2023-06-28T11:12:16.636Z,1.60
2023-06-28T11:17:21.363Z,1.30
2023-06-28T11:22:52.321Z,2.60
2023-06-28T11:27:59.927Z,2.40
2023-06-28T11:33:04.281Z,2.30
2023-06-28T11:38:09.322Z,1.70
2023-06-28T11:43:13.263Z,2.10
2023-06-28T11:48:17.281Z,1.80
2023-06-28T11:53:22.825Z,2.00
2023-06-28T11:58:30.343Z,1.90
2023-06-28T12:03:39.286Z,2.20
2023-06-28T12:08:43.328Z,1.90
2023-06-28T12:13:47.232Z,1.90
2023-06-28T12:19:02.422Z,1.80
2023-06-28T12:24:22.711Z,2.20
2023-06-28T12:29:30.724Z,2.30
2023-06-28T12:34:36.356Z,2.00
2023-06-28T12:39:42.178Z,2.60
2023-06-28T12:44:56.838Z,2.30
2023-06-28T12:50:01.292Z,2.20
2023-06-28T12:55:06.298Z,2.40
2023-06-28T13:00:11.273Z,2.10
2023-06-28T13:05:15.703Z,1.80
2023-06-28T13:10:19.585Z,2.20
2023-06-28T13:15:23.444Z,2.40
2023-06-28T13:20:27.225Z,2.50
2023-06-28T13:25:31.038Z,2.10
2023-06-28T13:30:35.014Z,2.20
2023-06-28T13:35:38.876Z,1.90
2023-06-28T13:40:42.659Z,2.30
2023-06-28T13:45:46.456Z,2.40
2023-06-28T13:50:50.731Z,2.20
2023-06-28T13:55:54.675Z,2.00
2023-06-28T14:00:59.765Z,2.40
2023-06-28T14:06:04.165Z,2.10
2023-06-28T14:11:08.585Z,2.30
2023-06-28T14:16:12.691Z,2.40
2023-06-28T14:21:17.140Z,2.40
2023-06-28T14:26:21.035Z,2.40
2023-06-28T14:31:25.930Z,2.30
2023-06-28T14:36:29.988Z,2.80
2023-06-28T14:41:33.918Z,2.40
2023-06-28T14:46:38.471Z,2.20
2023-06-28T14:51:42.478Z,2.40
2023-06-28T14:56:46.488Z,2.90
2023-06-28T15:01:50.260Z,2.50
2023-06-28T15:06:54.036Z,2.50
2023-06-28T15:11:57.803Z,2.60
2023-06-28T15:17:01.972Z,2.40
2023-06-28T15:22:06.650Z,2.30
2023-06-28T15:27:13.848Z,2.30
2023-06-28T15:32:18.777Z,2.10
2023-06-28T15:37:26.394Z,2.30
2023-06-28T15:42:30.678Z,2.90
2023-06-28T15:47:36.361Z,2.80
2023-06-28T15:52:41.012Z,2.70
2023-06-28T15:57:45.875Z,2.30
2023-06-28T16:02:50.632Z,2.60
2023-06-28T16:07:55.035Z,2.50
2023-06-28T16:13:01.703Z,3.00
2023-06-28T16:18:12.672Z,2.70
2023-06-28T16:24:14.064Z,2.20
2023-06-28T16:30:33.506Z,2.80
2023-06-28T16:35:44.328Z,2.70
2023-06-28T16:40:51.234Z,2.70
2023-06-28T16:46:00.432Z,2.50
2023-06-28T16:51:07.089Z,2.50
2023-06-28T16:56:11.298Z,2.70
2023-06-28T17:01:15.808Z,2.50
2023-06-28T17:06:20.120Z,2.80
2023-06-28T17:11:32.732Z,2.80
2023-06-28T17:16:42.214Z,3.00
2023-06-28T17:21:46.558Z,3.00
2023-06-28T17:26:58.235Z,3.10
2023-06-28T17:32:10.900Z,2.90
2023-06-28T17:37:15.955Z,3.00
2023-06-28T17:42:20.360Z,2.70
2023-06-28T17:47:24.823Z,2.60
2023-06-28T17:52:32.539Z,2.10
2023-06-28T17:57:37.364Z,2.80
2023-06-28T18:02:45.914Z,3.00
2023-06-28T18:07:50.853Z,2.60
2023-06-28T18:13:02.597Z,2.50
2023-06-28T18:18:10.918Z,2.40
2023-06-28T18:23:15.576Z,2.80
2023-06-28T18:28:20.359Z,2.70
2023-06-28T18:33:25.024Z,3.10
2023-06-28T18:38:29.912Z,2.50
2023-06-28T18:43:35.658Z,2.40
2023-06-28T18:48:40.162Z,2.80
2023-06-28T18:53:44.952Z,2.70
2023-06-28T18:58:49.823Z,2.30
2023-06-28T19:03:54.663Z,2.30
2023-06-28T19:08:59.792Z,2.80
2023-06-28T19:14:05.196Z,2.50
2023-06-28T19:19:10.305Z,2.60
2023-06-28T19:24:17.864Z,2.60
2023-06-28T19:29:22.740Z,2.20
2023-06-28T19:34:27.008Z,2.40
2023-06-28T19:39:31.017Z,2.40
2023-06-28T19:44:37.212Z,2.70
2023-06-28T19:49:42.444Z,2.40
2023-06-28T19:54:46.731Z,2.70
2023-06-28T19:59:51.768Z,2.70
2023-06-28T20:04:55.885Z,2.20
2023-06-28T20:09:59.902Z,3.00
2023-06-28T20:15:06.026Z,2.30
2023-06-28T20:20:10.633Z,2.50
2023-06-28T20:25:14.676Z,2.10
2023-06-28T20:30:21.158Z,2.70
2023-06-28T20:35:31.921Z,2.80
2023-06-28T20:40:36.022Z,2.60
2023-06-28T20:45:40.002Z,2.70
2023-06-28T20:50:44.090Z,2.60
2023-06-28T20:55:48.132Z,3.30
2023-06-28T21:00:52.239Z,3.00
2023-06-28T21:05:57.177Z,3.10
2023-06-28T21:11:01.121Z,2.90
2023-06-28T21:16:05.747Z,2.70
2023-06-28T21:21:12.543Z,2.80
2023-06-28T21:26:16.703Z,3.00
2023-06-28T21:31:21.286Z,2.50
2023-06-28T21:36:26.960Z,3.00
2023-06-28T21:41:35.701Z,2.60
2023-06-28T21:46:39.888Z,2.50
2023-06-28T21:51:43.920Z,2.40
2023-06-28T21:56:47.820Z,3.80
2023-06-28T22:01:51.778Z,3.30
2023-06-28T22:12:05.995Z,3.10
2023-06-28T22:17:11.395Z,3.00
2023-06-28T22:22:15.663Z,2.70
2023-06-28T22:27:19.987Z,2.80
2023-06-28T22:32:23.950Z,2.90
2023-06-28T22:37:27.963Z,2.90
2023-06-28T22:42:32.208Z,3.20
2023-06-28T22:47:36.649Z,3.40
2023-06-28T22:52:45.732Z,2.90
2023-06-28T22:57:49.941Z,3.00
2023-06-28T23:02:54.551Z,3.40
2023-06-28T23:07:59.515Z,3.90
2023-06-28T23:13:03.471Z,3.70
2023-06-28T23:18:08.002Z,4.50
2023-06-28T23:23:14.400Z,3.80
2023-06-28T23:28:22.503Z,4.10
2023-06-28T23:33:26.461Z,4.60
2023-06-28T23:38:30.463Z,3.40
2023-06-28T23:43:34.573Z,3.50
2023-06-28T23:48:39.162Z,4.40
2023-06-28T23:53:43.246Z,3.30
2023-06-28T23:58:47.307Z,3.90
